Time;durP1;ratioP1;P1;durP2;ratioP2;P2;SDS_P1;SDS_P2;PMS_P1;PMS_P2;Temp;Humidity;BMP_temperature;BMP_pressure;BME280_temperature;BME280_humidity;BME280_pressure;Samples;Min_cycle;Max_cycle;Signal;HPM_P1;HPM_P2
2023/01/30 00:01:15;;;;;;;19.35;8.52;;;;;;;2.59;74.27;100941.00;5068945;28;20617;-47
2023/01/30 00:03:41;;;;;;;17.23;6.95;;;;;;;2.63;74.14;100938.34;5068116;28;20791;-48
2023/01/30 00:06:07;;;;;;;14.75;7.82;;;;;;;2.61;73.91;100930.59;5059225;28;20607;-51
2023/01/30 00:08:32;;;;;;;13.30;7.55;;;;;;;2.62;74.07;100919.31;5067413;28;20073;-51
2023/01/30 00:11:04;;;;;;;15.32;7.53;;;;;;;2.65;74.01;100911.44;5067874;28;20081;-54
2023/01/30 00:13:29;;;;;;;15.33;8.20;;;;;;;2.67;73.86;100920.03;5062906;28;20451;-47
2023/01/30 00:15:54;;;;;;;12.63;6.97;;;;;;;2.66;73.95;100907.94;5069382;28;20328;-48
2023/01/30 00:18:20;;;;;;;15.75;8.05;;;;;;;2.67;73.87;100901.84;5071330;28;20099;-53
2023/01/30 00:20:45;;;;;;;15.57;8.32;;;;;;;2.69;73.88;100900.09;5060092;28;20081;-47
2023/01/30 00:23:11;;;;;;;12.90;6.95;;;;;;;2.69;73.84;100883.66;5066108;28;20088;-50
2023/01/30 00:25:36;;;;;;;15.65;8.05;;;;;;;2.67;73.86;100867.25;5063803;28;20093;-56
2023/01/30 00:28:02;;;;;;;14.68;8.35;;;;;;;2.69;73.82;100855.06;5067343;28;20095;-52
2023/01/30 00:30:27;;;;;;;15.25;8.57;;;;;;;2.69;73.81;100839.47;5065777;28;20077;-53
2023/01/30 00:32:54;;;;;;;13.48;7.20;;;;;;;2.68;73.99;100820.41;5068369;28;20095;-53
2023/01/30 00:35:21;;;;;;;16.33;8.13;;;;;;;2.66;73.50;100804.00;5064858;28;20097;-50
2023/01/30 00:37:46;;;;;;;15.10;8.07;;;;;;;2.67;73.89;100774.53;5069196;28;20151;-48
2023/01/30 00:40:12;;;;;;;14.90;7.25;;;;;;;2.70;73.84;100768.44;5067432;28;20130;-52
2023/01/30 00:48:13;;;;;;;14.57;7.03;;;;;;;2.69;73.72;100741.59;5068278;28;20124;-55
2023/01/30 00:50:41;;;;;;;19.70;9.05;;;;;;;2.67;73.79;100745.13;5055244;28;20065;-49
2023/01/30 00:53:14;;;;;;;14.15;8.90;;;;;;;2.71;73.70;100741.56;5053390;28;20130;-51
2023/01/30 00:55:42;;;;;;;17.92;8.20;;;;;;;2.69;73.57;100736.38;5065260;28;20076;-49
2023/01/30 00:58:08;;;;;;;15.45;7.97;;;;;;;2.67;73.63;100732.13;5043980;28;20088;-52
2023/01/30 01:00:34;;;;;;;17.25;8.48;;;;;;;2.65;73.44;100723.50;5059540;28;20104;-51
2023/01/30 01:03:00;;;;;;;16.02;8.20;;;;;;;2.63;73.64;100707.97;5065250;28;20536;-52
2023/01/30 01:05:26;;;;;;;14.98;8.48;;;;;;;2.63;73.73;100684.59;5066078;28;20228;-50
2023/01/30 01:07:52;;;;;;;14.55;8.82;;;;;;;2.62;73.55;100695.88;5067448;28;20636;-52
2023/01/30 01:10:18;;;;;;;14.80;7.78;;;;;;;2.61;73.85;100688.97;5066317;28;20076;-50
2023/01/30 01:12:48;;;;;;;16.92;8.27;;;;;;;2.62;73.87;100679.41;5066724;28;20099;-50
2023/01/30 01:15:13;;;;;;;13.90;7.70;;;;;;;2.61;73.67;100675.97;5061383;28;20464;-51
2023/01/30 01:17:40;;;;;;;16.17;8.85;;;;;;;2.59;73.53;100654.38;5062785;28;20069;-51
2023/01/30 01:20:07;;;;;;;16.20;8.88;;;;;;;2.60;73.97;100622.31;5064866;28;20081;-49
2023/01/30 01:22:33;;;;;;;15.32;8.13;;;;;;;2.59;73.93;100607.63;5067262;28;20069;-50
2023/01/30 01:24:58;;;;;;;15.95;8.13;;;;;;;2.57;73.73;100612.84;5063590;28;20086;-50
2023/01/30 01:27:24;;;;;;;16.85;7.72;;;;;;;2.58;73.98;100614.53;5065375;28;20168;-48
2023/01/30 01:29:51;;;;;;;18.00;9.48;;;;;;;2.56;73.65;100599.91;5064788;28;20093;-50
2023/01/30 01:32:16;;;;;;;16.17;8.35;;;;;;;2.55;74.00;100601.66;5064297;28;20088;-51
2023/01/30 01:34:42;;;;;;;18.10;8.48;;;;;;;2.54;73.81;100605.16;5066588;28;20108;-51
2023/01/30 01:37:07;;;;;;;16.80;9.32;;;;;;;2.57;73.80;100617.19;5066019;28;20077;-49
2023/01/30 01:42:17;;;;;;;14.82;8.02;;;;;;;2.58;73.82;100614.53;5072400;28;20090;-52
2023/01/30 01:45:01;;;;;;;15.65;8.05;;;;;;;2.57;73.59;100607.63;5064051;28;20093;-49
2023/01/30 01:47:27;;;;;;;15.32;9.13;;;;;;;2.61;73.69;100628.34;5067110;28;20089;-53
2023/01/30 01:49:53;;;;;;;17.60;8.57;;;;;;;2.62;73.74;100619.66;5057359;28;20523;-50
2023/01/30 01:52:20;;;;;;;15.55;8.20;;;;;;;2.60;73.60;100609.31;5065882;28;20088;-51
2023/01/30 01:54:58;;;;;;;17.35;8.10;;;;;;;2.62;73.45;100609.28;5067177;28;20540;-48
2023/01/30 01:57:39;;;;;;;16.85;7.97;;;;;;;2.65;73.79;100617.81;5065400;28;20155;-55
2023/01/30 02:00:11;;;;;;;19.48;7.93;;;;;;;2.63;73.79;100630.03;5066566;28;20081;-52
2023/01/30 02:02:39;;;;;;;19.98;9.18;;;;;;;2.62;74.21;100610.16;5067911;28;20144;-49
2023/01/30 02:05:05;;;;;;;15.30;8.52;;;;;;;2.58;73.92;100593.75;5066611;28;20097;-52
2023/01/30 02:07:40;;;;;;;15.60;8.57;;;;;;;2.56;74.32;100586.91;5056288;28;20081;-52
2023/01/30 02:10:09;;;;;;;15.38;8.75;;;;;;;2.55;74.28;100574.81;5063524;28;20154;-51
2023/01/30 02:12:36;;;;;;;18.05;8.80;;;;;;;2.57;74.32;100553.09;5062748;28;20081;-50
2023/01/30 02:15:03;;;;;;;24.45;11.43;;;;;;;2.59;74.52;100547.88;5067072;28;20093;-51
2023/01/30 02:17:29;;;;;;;19.13;9.38;;;;;;;2.61;74.63;100540.88;5065774;28;20849;-49
2023/01/30 02:20:05;;;;;;;17.33;9.52;;;;;;;2.62;74.36;100537.41;5065763;28;20171;-48
2023/01/30 02:23:11;;;;;;;17.27;9.07;;;;;;;2.61;74.51;100540.88;5061542;28;20555;-52
2023/01/30 02:25:56;;;;;;;19.58;9.98;;;;;;;2.62;74.41;100532.22;5063708;28;20131;-49
2023/01/30 02:28:45;;;;;;;17.70;8.25;;;;;;;2.62;74.54;100516.63;5047135;28;20072;-52
2023/01/30 02:31:25;;;;;;;22.90;10.32;;;;;;;2.61;74.58;100519.25;5064493;28;20567;-49
2023/01/30 02:34:06;;;;;;;20.33;10.13;;;;;;;2.63;74.73;100514.84;5061093;28;20108;-53
2023/01/30 02:37:08;;;;;;;23.75;11.13;;;;;;;2.61;74.71;100504.53;5067648;28;20073;-50
2023/01/30 02:39:56;;;;;;;18.13;10.13;;;;;;;2.60;74.70;100487.22;5057528;28;20104;-48
2023/01/30 02:42:42;;;;;;;19.73;10.32;;;;;;;2.60;74.94;100492.44;5057282;28;20168;-52
2023/01/30 02:45:17;;;;;;;18.35;9.27;;;;;;;2.58;74.84;100502.00;5066050;28;20116;-47
2023/01/30 02:48:01;;;;;;;22.58;9.85;;;;;;;2.59;74.65;100498.50;5045823;22;20110;-54
2023/01/30 02:50:38;;;;;;;22.23;10.35;;;;;;;2.59;74.70;100511.50;5020924;28;20104;-55
2023/01/30 02:53:05;;;;;;;18.33;9.90;;;;;;;2.59;74.62;100508.91;5031597;28;20065;-58
2023/01/30 02:55:31;;;;;;;21.42;10.75;;;;;;;2.56;74.85;100496.88;5023160;28;20749;-58
2023/01/30 02:57:56;;;;;;;19.63;9.77;;;;;;;2.57;74.65;100475.16;5023890;28;20104;-57
2023/01/30 03:00:26;;;;;;;20.17;10.98;;;;;;;2.57;74.75;100489.91;5033591;28;20089;-58
2023/01/30 03:03:05;;;;;;;24.92;11.80;;;;;;;2.57;74.79;100482.13;5032725;28;20078;-58
2023/01/30 03:05:58;;;;;;;21.40;10.25;;;;;;;2.57;74.76;100474.31;5037246;28;20098;-59
2023/01/30 03:08:23;;;;;;;20.73;8.70;;;;;;;2.52;75.01;100471.88;5038064;28;20089;-55
2023/01/30 03:11:04;;;;;;;20.25;10.25;;;;;;;2.49;74.89;100461.56;5038150;28;20074;-57
2023/01/30 03:14:00;;;;;;;16.98;8.88;;;;;;;2.51;74.93;100459.78;5028609;28;20074;-57
2023/01/30 03:16:38;;;;;;;23.20;11.27;;;;;;;2.49;75.19;100458.97;5041251;28;20409;-54
2023/01/30 03:19:08;;;;;;;21.45;10.25;;;;;;;2.49;75.31;100437.34;5028783;28;20089;-57
2023/01/30 03:21:38;;;;;;;16.52;8.93;;;;;;;2.50;75.35;100428.63;5035047;28;20070;-59
2023/01/30 03:24:04;;;;;;;17.83;8.80;;;;;;;2.47;75.95;100423.53;5029668;28;20111;-56
2023/01/30 03:26:33;;;;;;;25.63;12.55;;;;;;;2.49;75.67;100417.41;5033006;28;20129;-57
2023/01/30 03:29:00;;;;;;;19.30;8.48;;;;;;;2.50;75.67;100408.72;5031046;28;20120;-57
2023/01/30 03:31:25;;;;;;;17.48;9.20;;;;;;;2.47;76.19;100387.19;5018100;28;20084;-57
2023/01/30 03:33:51;;;;;;;21.73;10.82;;;;;;;2.48;76.17;100376.75;5040357;28;20070;-56
2023/01/30 03:36:16;;;;;;;20.65;10.20;;;;;;;2.50;76.23;100366.28;5033640;28;20101;-57
2023/01/30 03:38:42;;;;;;;17.35;8.68;;;;;;;2.47;76.43;100361.22;5036776;28;20167;-59
2023/01/30 03:41:07;;;;;;;20.20;8.68;;;;;;;2.46;76.54;100385.47;5032439;28;20078;-57
2023/01/30 03:43:33;;;;;;;20.60;10.02;;;;;;;2.42;76.78;100367.38;5032752;28;20082;-55
2023/01/30 03:45:58;;;;;;;17.83;8.73;;;;;;;2.44;76.69;100362.13;5030152;28;20094;-59
2023/01/30 03:48:24;;;;;;;19.50;9.20;;;;;;;2.40;76.65;100353.59;5029525;28;20082;-57
2023/01/30 03:50:49;;;;;;;19.30;9.82;;;;;;;2.39;76.98;100366.63;5036701;28;20146;-57
2023/01/30 03:53:15;;;;;;;15.48;8.18;;;;;;;2.39;77.35;100370.06;5037375;28;20081;-54
2023/01/30 03:55:40;;;;;;;21.58;10.18;;;;;;;2.38;77.17;100368.38;5036520;28;20077;-55
2023/01/30 03:58:06;;;;;;;19.08;9.75;;;;;;;2.37;77.33;100366.66;5021930;28;20113;-56
2023/01/30 04:00:31;;;;;;;17.17;10.00;;;;;;;2.38;77.41;100342.41;5036081;28;20140;-58
2023/01/30 04:02:57;;;;;;;24.73;10.88;;;;;;;2.39;77.42;100333.72;5036373;28;20101;-56
2023/01/30 04:05:23;;;;;;;17.80;9.27;;;;;;;2.37;77.53;100332.91;5039776;28;20188;-58
2023/01/30 04:07:50;;;;;;;19.98;9.88;;;;;;;2.36;77.48;100328.59;5041904;28;20151;-55
2023/01/30 04:10:17;;;;;;;20.50;8.75;;;;;;;2.34;77.42;100335.63;5039330;28;20116;-55
2023/01/30 04:12:42;;;;;;;16.67;8.18;;;;;;;2.35;77.94;100333.84;5027732;28;20103;-55
2023/01/30 04:15:08;;;;;;;21.10;11.02;;;;;;;2.34;77.77;100324.38;5033339;28;20066;-57
2023/01/30 04:17:34;;;;;;;23.20;11.27;;;;;;;2.34;77.93;100309.66;5019430;28;20105;-59
2023/01/30 04:19:59;;;;;;;21.13;10.43;;;;;;;2.35;77.81;100308.72;5034020;28;20082;-55
2023/01/30 04:22:25;;;;;;;26.50;11.82;;;;;;;2.33;78.25;100318.34;5032068;28;20097;-58
2023/01/30 04:24:50;;;;;;;24.38;12.25;;;;;;;2.34;78.34;100298.41;5033331;28;20105;-57
2023/01/30 04:27:16;;;;;;;25.52;11.75;;;;;;;2.34;78.76;100295.81;5027240;28;20121;-57
2023/01/30 04:29:41;;;;;;;25.42;12.48;;;;;;;2.33;78.53;100279.38;5031524;28;20092;-57
2023/01/30 04:32:07;;;;;;;31.80;12.57;;;;;;;2.33;78.70;100276.78;5021370;28;20164;-56
2023/01/30 04:34:32;;;;;;;31.52;13.13;;;;;;;2.35;78.70;100274.97;5040469;28;20196;-58
2023/01/30 04:36:58;;;;;;;27.83;13.50;;;;;;;2.35;78.56;100269.78;5016753;28;20102;-56
2023/01/30 04:39:23;;;;;;;26.63;13.30;;;;;;;2.34;78.75;100256.84;5023670;28;20108;-55
2023/01/30 04:41:49;;;;;;;32.90;13.65;;;;;;;2.34;78.87;100247.34;5006131;28;20082;-58
2023/01/30 04:44:14;;;;;;;27.25;12.65;;;;;;;2.33;79.18;100242.16;5026700;28;20098;-58
2023/01/30 04:46:39;;;;;;;23.65;11.63;;;;;;;2.32;78.86;100249.13;5034790;28;20108;-57
2023/01/30 04:49:05;;;;;;;26.77;13.40;;;;;;;2.32;79.42;100241.34;5035881;28;20096;-57
2023/01/30 04:51:30;;;;;;;29.52;13.75;;;;;;;2.34;79.55;100244.75;5032242;28;20078;-56
2023/01/30 04:53:56;;;;;;;22.65;11.15;;;;;;;2.35;79.23;100230.81;5034453;28;20127;-57
2023/01/30 04:56:21;;;;;;;24.40;12.75;;;;;;;2.35;79.11;100228.22;5034466;28;20090;-58
2023/01/30 04:58:47;;;;;;;22.65;12.60;;;;;;;2.37;79.37;100230.78;5036384;28;20089;-56
2023/01/30 05:01:34;;;;;;;20.77;10.30;;;;;;;2.37;79.45;100229.03;5038249;28;20097;-53
2023/01/30 05:04:00;;;;;;;19.67;10.57;;;;;;;2.37;79.37;100213.47;5038544;28;20160;-53
2023/01/30 05:06:27;;;;;;;20.33;11.40;;;;;;;2.33;79.54;100219.66;5032295;28;20572;-53
2023/01/30 05:08:54;;;;;;;18.15;9.63;;;;;;;2.31;79.64;100226.66;5031762;28;20172;-58
2023/01/30 05:11:20;;;;;;;23.50;12.07;;;;;;;2.31;79.67;100216.28;5035710;28;20070;-57
2023/01/30 05:13:46;;;;;;;22.00;10.73;;;;;;;2.30;79.56;100211.97;5035603;28;20081;-55
2023/01/30 05:16:13;;;;;;;20.33;9.98;;;;;;;2.31;79.79;100199.81;5034849;28;20593;-58
2023/01/30 05:18:38;;;;;;;21.08;10.50;;;;;;;2.29;79.77;100192.94;5027042;28;20097;-56
2023/01/30 05:21:16;;;;;;;21.00;10.98;;;;;;;2.29;79.90;100197.28;5032819;28;20086;-58
2023/01/30 05:23:42;;;;;;;23.15;10.40;;;;;;;2.29;79.73;100187.75;5031147;28;20082;-56
2023/01/30 05:26:08;;;;;;;26.25;11.48;;;;;;;2.30;79.93;100167.84;5035911;28;20196;-55
2023/01/30 05:28:34;;;;;;;22.38;10.60;;;;;;;2.28;80.25;100175.66;5032207;28;20205;-58
2023/01/30 05:31:05;;;;;;;21.67;11.23;;;;;;;2.31;79.87;100172.13;5035266;28;20077;-57
2023/01/30 05:33:30;;;;;;;24.83;11.10;;;;;;;2.33;80.15;100172.06;5035909;28;20074;-55
2023/01/30 05:35:56;;;;;;;17.88;9.02;;;;;;;2.32;80.24;100186.81;5030470;28;20073;-58
2023/01/30 05:38:23;;;;;;;23.15;11.00;;;;;;;2.29;80.49;100163.53;5025130;28;20120;-53
2023/01/30 05:41:03;;;;;;;20.23;9.20;;;;;;;2.29;80.27;100160.94;5021624;28;20074;-59
2023/01/30 05:43:30;;;;;;;21.42;10.30;;;;;;;2.31;80.26;100163.47;5031846;28;20533;-56
2023/01/30 05:45:57;;;;;;;21.15;10.02;;;;;;;2.30;80.26;100160.03;5032175;28;20097;-54
2023/01/30 05:48:23;;;;;;;20.23;10.20;;;;;;;2.30;80.77;100167.84;5024022;28;20098;-56
2023/01/30 05:50:53;;;;;;;18.63;8.93;;;;;;;2.32;80.75;100160.84;5027343;28;20537;-56
2023/01/30 05:53:19;;;;;;;19.67;10.60;;;;;;;2.33;80.56;100162.53;5029684;28;20173;-54
2023/01/30 05:55:45;;;;;;;18.52;9.43;;;;;;;2.34;80.33;100153.84;5031628;28;20140;-56
2023/01/30 05:58:11;;;;;;;20.40;10.25;;;;;;;2.39;80.57;100157.13;5026334;28;20549;-53
2023/01/30 06:00:37;;;;;;;18.88;9.90;;;;;;;2.42;80.29;100143.22;5021734;28;20082;-55
2023/01/30 06:03:02;;;;;;;21.00;9.13;;;;;;;2.43;80.70;100153.53;5018722;28;20085;-53
2023/01/30 06:05:27;;;;;;;18.52;9.32;;;;;;;2.45;80.48;100150.88;5013875;28;20090;-53
2023/01/30 06:07:53;;;;;;;17.15;8.88;;;;;;;2.48;80.67;100144.75;5019955;28;20097;-54
2023/01/30 06:10:18;;;;;;;16.88;9.13;;;;;;;2.50;80.58;100132.53;5015976;28;20905;-56
2023/01/30 06:12:44;;;;;;;18.63;9.25;;;;;;;2.52;80.58;100120.34;5023296;28;20069;-54
2023/01/30 06:15:10;;;;;;;18.63;8.85;;;;;;;2.51;80.83;100129.91;5020919;28;20448;-54
2023/01/30 06:17:35;;;;;;;17.15;8.38;;;;;;;2.52;80.85;100131.59;5012932;28;20156;-53
2023/01/30 06:20:01;;;;;;;17.17;9.02;;;;;;;2.55;80.85;100128.06;5017274;28;20078;-54
2023/01/30 06:22:26;;;;;;;20.90;9.15;;;;;;;2.57;80.63;100123.66;5022595;28;20086;-55
2023/01/30 06:24:52;;;;;;;20.48;10.27;;;;;;;2.59;80.91;100121.84;5026419;28;20607;-54
2023/01/30 06:27:18;;;;;;;16.77;9.57;;;;;;;2.61;80.91;100120.06;5022357;28;20093;-54
2023/01/30 06:29:43;;;;;;;16.00;8.68;;;;;;;2.63;81.04;100127.78;5021616;28;20144;-55
2023/01/30 06:32:09;;;;;;;24.75;11.07;;;;;;;2.65;81.18;100139.81;5022322;28;20103;-52
2023/01/30 06:34:34;;;;;;;17.88;8.30;;;;;;;2.68;80.93;100139.72;5016589;28;20082;-55
2023/01/30 06:37:00;;;;;;;16.13;8.40;;;;;;;2.71;81.24;100134.41;5024157;28;20094;-53
2023/01/30 06:39:25;;;;;;;19.20;11.35;;;;;;;2.73;81.07;100130.00;5024329;28;20078;-54
2023/01/30 06:41:51;;;;;;;16.00;8.45;;;;;;;2.74;81.28;100138.66;5019623;28;20082;-53
2023/01/30 06:44:16;;;;;;;18.42;8.77;;;;;;;2.76;81.21;100139.44;5024122;28;20094;-54
2023/01/30 06:46:42;;;;;;;15.77;7.72;;;;;;;2.79;81.12;100130.72;5032062;28;20562;-53
2023/01/30 06:49:07;;;;;;;16.38;8.50;;;;;;;2.82;81.25;100133.19;5037005;28;20734;-54
2023/01/30 06:51:33;;;;;;;18.92;10.43;;;;;;;2.83;81.33;100124.47;5037798;28;20078;-55
2023/01/30 06:53:58;;;;;;;18.70;9.85;;;;;;;2.87;81.21;100126.06;5035158;28;20390;-57
2023/01/30 06:56:24;;;;;;;18.38;9.18;;;;;;;2.87;81.25;100131.28;5028509;28;20113;-55
2023/01/30 06:58:49;;;;;;;23.35;10.73;;;;;;;2.88;81.32;100132.97;5018607;28;20086;-53
2023/01/30 07:01:14;;;;;;;20.08;8.98;;;;;;;2.90;81.32;100142.41;5025077;28;20081;-53
2023/01/30 07:03:40;;;;;;;15.10;8.18;;;;;;;2.94;81.10;100145.75;5024334;28;20074;-53
2023/01/30 07:06:05;;;;;;;17.48;8.90;;;;;;;2.95;81.28;100124.03;5019585;28;20107;-52
2023/01/30 07:08:31;;;;;;;18.20;8.95;;;;;;;3.00;81.34;100131.69;5017914;28;20074;-55
2023/01/30 07:10:56;;;;;;;18.48;10.02;;;;;;;3.02;81.29;100125.53;5010061;28;20084;-53
2023/01/30 07:13:22;;;;;;;15.90;9.13;;;;;;;3.04;81.36;100128.06;5025424;28;20077;-53
2023/01/30 07:15:47;;;;;;;18.58;10.43;;;;;;;3.06;81.61;100131.47;5012701;28;20983;-54
2023/01/30 07:18:13;;;;;;;20.63;9.80;;;;;;;3.10;81.69;100127.00;5026375;28;20101;-55
2023/01/30 07:20:39;;;;;;;19.60;9.75;;;;;;;3.15;81.41;100122.47;5012120;28;20125;-54
2023/01/30 07:23:04;;;;;;;12.15;6.60;;;;;;;3.19;81.79;100131.88;5020503;28;20211;-56
2023/01/30 07:25:29;;;;;;;17.30;9.43;;;;;;;3.22;81.81;100125.69;5021615;28;20644;-53
2023/01/30 07:28:00;;;;;;;17.88;10.38;;;;;;;3.27;81.41;100124.63;5020278;28;20102;-54
2023/01/30 07:30:28;;;;;;;16.50;7.60;;;;;;;3.29;81.68;100114.19;5022224;28;20101;-54
2023/01/30 07:32:58;;;;;;;16.42;8.48;;;;;;;3.30;81.54;100119.31;5025139;28;20085;-55
2023/01/30 07:35:26;;;;;;;17.77;9.30;;;;;;;3.34;81.97;100104.44;5017404;28;20078;-53
2023/01/30 07:37:52;;;;;;;17.23;9.30;;;;;;;3.40;81.76;100095.56;5023715;28;20104;-56
2023/01/30 07:40:18;;;;;;;20.63;9.50;;;;;;;3.47;81.46;100107.41;5028382;28;20074;-53
2023/01/30 07:43:04;;;;;;;20.30;9.25;;;;;;;3.53;81.40;100115.00;5027114;28;20077;-55
2023/01/30 07:45:39;;;;;;;18.33;9.75;;;;;;;3.58;81.37;100118.25;5026437;28;20086;-53
2023/01/30 07:48:05;;;;;;;15.73;7.97;;;;;;;3.63;81.31;100121.53;5024204;28;20219;-53
2023/01/30 07:50:31;;;;;;;16.17;9.50;;;;;;;3.69;81.16;100132.63;5020472;28;20109;-53
2023/01/30 07:52:56;;;;;;;19.05;8.75;;;;;;;3.74;81.18;100134.13;5024101;28;20081;-54
2023/01/30 07:55:22;;;;;;;16.58;7.65;;;;;;;3.80;81.18;100125.22;5017090;28;20097;-53
2023/01/30 07:57:47;;;;;;;15.25;8.15;;;;;;;3.87;81.07;100136.25;5017675;28;20442;-54
2023/01/30 08:00:13;;;;;;;17.85;8.93;;;;;;;3.88;81.33;100133.56;5011748;28;20204;-53
2023/01/30 08:02:39;;;;;;;16.55;8.65;;;;;;;3.92;81.45;100126.50;5006812;28;20074;-55
2023/01/30 08:05:05;;;;;;;17.08;9.45;;;;;;;3.99;81.23;100129.72;5016793;28;21397;-54
2023/01/30 08:07:30;;;;;;;15.85;8.52;;;;;;;4.08;81.22;100131.94;5019703;28;20116;-54
2023/01/30 08:09:56;;;;;;;13.68;7.88;;;;;;;4.19;80.74;100123.69;4998983;28;20806;-54
2023/01/30 08:12:21;;;;;;;17.67;8.20;;;;;;;4.28;80.74;100138.94;5026881;28;20074;-56
2023/01/30 08:14:46;;;;;;;14.27;7.28;;;;;;;4.33;80.46;100130.91;5022238;28;20089;-56
2023/01/30 08:17:12;;;;;;;14.30;7.55;;;;;;;4.37;80.72;100122.06;5019387;28;20086;-55
2023/01/30 08:19:37;;;;;;;13.52;7.38;;;;;;;4.42;80.55;100120.13;4999317;28;20108;-57
2023/01/30 08:22:03;;;;;;;13.80;7.43;;;;;;;4.43;80.49;100120.06;5012272;28;20132;-57
2023/01/30 08:24:29;;;;;;;15.02;7.75;;;;;;;4.45;80.35;100122.59;5020389;28;20178;-58
2023/01/30 08:26:54;;;;;;;14.77;7.75;;;;;;;4.47;80.73;100122.53;5029562;28;20143;-57
2023/01/30 08:29:20;;;;;;;15.38;7.57;;;;;;;4.52;80.74;100121.41;5033979;28;20082;-57
2023/01/30 08:31:45;;;;;;;16.90;8.45;;;;;;;4.60;80.59;100122.88;5026543;28;20107;-57
2023/01/30 08:34:10;;;;;;;13.48;7.25;;;;;;;4.64;80.36;100122.66;5024257;28;20074;-55
2023/01/30 08:36:36;;;;;;;15.35;7.95;;;;;;;4.70;80.21;100134.59;5014659;28;20565;-53
2023/01/30 08:39:02;;;;;;;10.13;5.72;;;;;;;4.73;80.29;100124.88;5021965;28;20448;-52
2023/01/30 08:41:27;;;;;;;11.38;7.30;;;;;;;4.72;80.32;100128.38;5022330;28;20081;-53
2023/01/30 08:43:53;;;;;;;11.60;6.45;;;;;;;4.73;80.05;100121.44;5017328;28;20231;-51
2023/01/30 08:46:20;;;;;;;11.85;6.10;;;;;;;4.75;80.20;100131.78;5021160;28;20176;-52
2023/01/30 08:48:47;;;;;;;13.75;6.75;;;;;;;4.79;80.47;100131.56;5021362;28;20093;-53
2023/01/30 08:51:13;;;;;;;11.13;6.95;;;;;;;4.82;80.42;100128.84;5028909;28;20082;-53
2023/01/30 08:53:38;;;;;;;10.77;5.70;;;;;;;4.87;79.98;100116.44;5025985;28;20533;-51
2023/01/30 08:56:05;;;;;;;11.25;5.90;;;;;;;4.92;80.16;100112.78;5027960;28;20078;-54
2023/01/30 08:58:30;;;;;;;11.52;6.28;;;;;;;4.96;80.05;100112.59;5024385;28;20085;-52
2023/01/30 09:00:56;;;;;;;10.20;5.15;;;;;;;4.99;79.90;100109.81;5030605;28;20448;-51
2023/01/30 09:03:21;;;;;;;14.07;7.35;;;;;;;5.06;79.67;100115.66;5025916;28;20124;-50
2023/01/30 09:05:53;;;;;;;10.80;6.03;;;;;;;5.13;79.77;100121.44;5025427;28;20448;-50
2023/01/30 09:08:19;;;;;;;9.10;4.78;;;;;;;5.17;79.61;100121.22;5026743;28;20089;-51
2023/01/30 09:10:44;;;;;;;9.27;4.55;;;;;;;5.21;79.50;100126.31;5030688;28;20100;-50
2023/01/30 09:13:09;;;;;;;10.45;4.65;;;;;;;5.23;79.36;100117.47;5029293;28;20761;-52
2023/01/30 09:15:35;;;;;;;10.48;4.80;;;;;;;5.27;78.71;100115.56;5023202;28;20096;-52
2023/01/30 09:18:01;;;;;;;13.38;5.38;;;;;;;5.38;78.71;100110.69;5027074;28;20111;-56
2023/01/30 09:20:26;;;;;;;9.57;4.30;;;;;;;5.48;78.88;100108.50;5027899;28;20161;-52
2023/01/30 09:22:52;;;;;;;8.50;3.63;;;;;;;5.44;78.83;100131.31;5014118;28;20082;-59
2023/01/30 09:25:17;;;;;;;5.90;3.55;;;;;;;5.38;78.91;100146.41;5016834;28;20433;-51
2023/01/30 09:27:43;;;;;;;7.28;3.03;;;;;;;5.33;78.83;100115.31;5021309;28;20148;-53
2023/01/30 09:30:09;;;;;;;5.45;2.72;;;;;;;5.33;78.74;100105.69;5029353;28;20092;-53
2023/01/30 09:32:36;;;;;;;9.70;3.47;;;;;;;5.40;78.39;100108.88;5030881;28;20078;-52
2023/01/30 09:35:02;;;;;;;8.60;3.90;;;;;;;5.43;78.43;100108.72;5015046;28;20077;-51
2023/01/30 09:37:28;;;;;;;9.02;3.25;;;;;;;5.52;78.67;100107.47;5022269;28;20147;-51
2023/01/30 09:39:53;;;;;;;10.30;2.92;;;;;;;5.62;78.58;100105.25;5028287;28;20160;-54
2023/01/30 09:42:51;;;;;;;10.25;3.17;;;;;;;5.60;78.49;100110.53;5029548;28;20074;-50
2023/01/30 09:45:51;;;;;;;9.20;2.38;;;;;;;5.53;78.36;100116.13;5020430;28;20093;-51
2023/01/30 09:48:25;;;;;;;6.63;2.42;;;;;;;5.40;78.82;100103.66;5013440;28;20118;-50
2023/01/30 09:51:03;;;;;;;5.13;1.80;;;;;;;5.33;78.70;100100.47;5024673;28;20074;-51
2023/01/30 09:53:55;;;;;;;7.25;2.05;;;;;;;5.26;78.77;100101.69;5028659;28;20508;-51
2023/01/30 09:56:21;;;;;;;8.07;2.17;;;;;;;5.24;78.80;100108.75;5027454;28;20196;-51
2023/01/30 09:58:53;;;;;;;9.30;2.88;;;;;;;5.23;78.79;100100.97;5022529;28;20144;-52
2023/01/30 10:01:35;;;;;;;9.25;1.80;;;;;;;5.20;78.61;100094.13;5033937;28;20165;-51
2023/01/30 10:04:08;;;;;;;5.35;1.80;;;;;;;5.16;78.83;100101.25;5029216;28;20082;-51
2023/01/30 10:06:47;;;;;;;7.38;2.03;;;;;;;5.21;78.67;100092.38;5007114;28;20096;-52
2023/01/30 10:09:32;;;;;;;4.28;1.80;;;;;;;5.36;78.77;100096.03;5014233;28;20164;-54
2023/01/30 10:12:16;;;;;;;11.05;2.28;;;;;;;5.58;77.59;100088.91;5017920;28;20105;-56
2023/01/30 10:15:00;;;;;;;5.70;1.75;;;;;;;5.78;77.55;100089.69;5024699;28;20084;-54
2023/01/30 10:17:44;;;;;;;4.80;1.80;;;;;;;5.94;76.61;100089.81;5017317;28;20098;-51
2023/01/30 10:20:35;;;;;;;11.20;2.38;;;;;;;6.00;76.42;100081.69;5026847;28;20070;-56
2023/01/30 10:23:09;;;;;;;6.47;1.88;;;;;;;6.06;76.30;100076.19;5021576;28;20073;-53
2023/01/30 10:25:49;;;;;;;10.18;1.90;;;;;;;6.21;76.05;100073.72;5031302;28;20097;-54
2023/01/30 10:28:33;;;;;;;11.52;1.80;;;;;;;6.34;75.84;100074.78;5028447;28;20132;-54
2023/01/30 10:31:21;;;;;;;8.48;2.17;;;;;;;6.54;75.17;100070.31;5032038;28;20092;-53
2023/01/30 10:34:05;;;;;;;12.73;3.53;;;;;;;6.64;75.26;100068.91;5032657;28;20113;-52
2023/01/30 10:36:57;;;;;;;8.40;1.52;;;;;;;6.59;74.81;100078.75;5027005;28;20125;-55
2023/01/30 10:39:49;;;;;;;6.45;1.35;;;;;;;6.55;74.59;100077.25;5028271;28;20077;-51
2023/01/30 10:42:30;;;;;;;8.93;1.33;;;;;;;6.52;74.98;100077.41;5028108;28;20100;-51
2023/01/30 10:45:09;;;;;;;9.73;2.15;;;;;;;6.50;74.80;100098.41;5026932;28;20144;-52
2023/01/30 10:47:43;;;;;;;8.82;1.50;;;;;;;6.53;74.74;100090.38;5031208;28;20102;-53
2023/01/30 10:50:28;;;;;;;5.60;1.40;;;;;;;6.76;74.08;100088.34;5028748;28;20518;-54
2023/01/30 10:53:22;;;;;;;7.40;1.27;;;;;;;6.80;73.37;100074.19;5021023;28;20171;-53
2023/01/30 10:55:55;;;;;;;5.05;1.90;;;;;;;6.88;73.13;100083.41;5012735;28;20093;-54
2023/01/30 10:58:22;;;;;;;4.88;1.15;;;;;;;6.77;72.82;100068.25;5021057;28;20139;-54
2023/01/30 11:01:04;;;;;;;15.13;1.58;;;;;;;6.71;72.05;100069.44;5014237;28;21193;-53
2023/01/30 11:03:39;;;;;;;9.32;1.50;;;;;;;6.70;72.20;100055.53;5029478;28;20135;-51
2023/01/30 11:06:15;;;;;;;6.20;1.13;;;;;;;6.70;72.10;100066.00;5027325;28;20121;-54
2023/01/30 11:08:41;;;;;;;5.07;1.15;;;;;;;6.67;72.10;100089.69;5030111;28;20148;-55
2023/01/30 11:11:37;;;;;;;5.43;0.90;;;;;;;6.52;70.86;100059.09;5022444;28;20078;-54
2023/01/30 11:14:08;;;;;;;5.85;1.00;;;;;;;6.47;71.69;100054.13;5026477;28;20108;-54
2023/01/30 11:16:47;;;;;;;7.80;1.02;;;;;;;6.37;71.05;100103.41;5027799;28;20697;-52
2023/01/30 11:19:15;;;;;;;8.07;1.13;;;;;;;6.34;71.25;100053.88;5022640;28;20482;-53
2023/01/30 11:21:42;;;;;;;3.38;0.98;;;;;;;6.31;71.56;100040.16;5021809;28;21052;-54
2023/01/30 11:24:19;;;;;;;6.00;1.20;;;;;;;6.19;70.28;100054.66;5024712;28;20088;-51
2023/01/30 11:26:46;;;;;;;2.13;0.47;;;;;;;6.13;71.14;100034.94;5019052;28;20112;-53
2023/01/30 11:29:30;;;;;;;2.40;0.50;;;;;;;6.06;70.71;100043.97;5027883;28;20082;-52
2023/01/30 11:32:00;;;;;;;4.60;0.85;;;;;;;6.06;71.49;100034.41;5026352;28;20089;-52
2023/01/30 11:34:26;;;;;;;7.25;0.60;;;;;;;6.07;70.98;100030.88;5025947;28;20081;-52
2023/01/30 11:36:51;;;;;;;3.17;0.52;;;;;;;6.08;70.23;100029.06;5029083;28;20094;-52
2023/01/30 11:39:22;;;;;;;3.80;0.80;;;;;;;6.14;70.71;100036.63;5024246;28;20487;-54
2023/01/30 11:41:53;;;;;;;3.05;0.82;;;;;;;6.33;69.97;100020.84;5026772;28;20085;-52
2023/01/30 11:44:25;;;;;;;1.75;0.63;;;;;;;6.48;69.42;100028.81;5023933;28;20165;-55